sensor_id;sensor_type;location;lat;lon;timestamp;temperature;humidity
981;DHT22;479;53.514;9.994;2023-01-08T00:01:13;8.90;99.90
981;DHT22;479;53.514;9.994;2023-01-08T00:03:40;8.90;99.90
981;DHT22;479;53.514;9.994;2023-01-08T00:06:10;9.00;99.90
981;DHT22;479;53.514;9.994;2023-01-08T00:08:37;9.10;99.90
981;DHT22;479;53.514;9.994;2023-01-08T00:11:04;9.10;99.90
981;DHT22;479;53.514;9.994;2023-01-08T00:13:31;9.10;99.90
981;DHT22;479;53.514;9.994;2023-01-08T00:16:03;9.10;99.90
981;DHT22;479;53.514;9.994;2023-01-08T00:18:30;9.20;99.90
981;DHT22;479;53.514;9.994;2023-01-08T00:20:57;9.20;99.90
981;DHT22;479;53.514;9.994;2023-01-08T00:23:24;9.30;99.90
981;DHT22;479;53.514;9.994;2023-01-08T00:25:51;9.30;99.90
981;DHT22;479;53.514;9.994;2023-01-08T00:28:18;9.30;99.90
981;DHT22;479;53.514;9.994;2023-01-08T00:30:46;9.30;99.90
981;DHT22;479;53.514;9.994;2023-01-08T00:33:15;9.30;99.90
981;DHT22;479;53.514;9.994;2023-01-08T00:35:42;9.30;99.90
981;DHT22;479;53.514;9.994;2023-01-08T00:38:08;9.20;99.90
981;DHT22;479;53.514;9.994;2023-01-08T00:40:37;9.20;99.90
981;DHT22;479;53.514;9.994;2023-01-08T00:43:05;9.20;99.90
981;DHT22;479;53.514;9.994;2023-01-08T00:45:32;9.10;99.90
981;DHT22;479;53.514;9.994;2023-01-08T00:47:59;9.00;99.90
981;DHT22;479;53.514;9.994;2023-01-08T00:50:27;9.00;99.90
981;DHT22;479;53.514;9.994;2023-01-08T00:52:54;9.10;99.90
981;DHT22;479;53.514;9.994;2023-01-08T00:55:21;9.10;99.90
981;DHT22;479;53.514;9.994;2023-01-08T00:57:48;9.10;99.90
981;DHT22;479;53.514;9.994;2023-01-08T01:00:15;9.10;99.90
981;DHT22;479;53.514;9.994;2023-01-08T01:02:43;9.10;99.90
981;DHT22;479;53.514;9.994;2023-01-08T01:05:10;9.10;99.90
981;DHT22;479;53.514;9.994;2023-01-08T01:07:41;9.20;99.90
981;DHT22;479;53.514;9.994;2023-01-08T01:10:09;9.20;99.90
981;DHT22;479;53.514;9.994;2023-01-08T01:12:37;9.30;99.90
981;DHT22;479;53.514;9.994;2023-01-08T01:15:05;9.30;99.90
981;DHT22;479;53.514;9.994;2023-01-08T01:17:33;9.40;99.90
981;DHT22;479;53.514;9.994;2023-01-08T01:20:00;9.40;99.90
981;DHT22;479;53.514;9.994;2023-01-08T01:22:27;9.40;99.90
981;DHT22;479;53.514;9.994;2023-01-08T01:24:56;9.50;99.90
981;DHT22;479;53.514;9.994;2023-01-08T01:27:24;9.50;99.90
981;DHT22;479;53.514;9.994;2023-01-08T01:29:51;9.50;99.90
981;DHT22;479;53.514;9.994;2023-01-08T01:32:18;9.40;99.90
981;DHT22;479;53.514;9.994;2023-01-08T01:34:45;9.40;99.90
981;DHT22;479;53.514;9.994;2023-01-08T01:37:12;9.50;99.90
981;DHT22;479;53.514;9.994;2023-01-08T01:39:39;9.50;99.90
981;DHT22;479;53.514;9.994;2023-01-08T01:42:11;9.50;99.90
981;DHT22;479;53.514;9.994;2023-01-08T01:44:59;9.50;99.90
981;DHT22;479;53.514;9.994;2023-01-08T01:47:28;9.50;99.90
981;DHT22;479;53.514;9.994;2023-01-08T01:50:00;9.50;99.90
981;DHT22;479;53.514;9.994;2023-01-08T01:52:30;9.50;99.90
981;DHT22;479;53.514;9.994;2023-01-08T01:55:00;9.50;99.90
981;DHT22;479;53.514;9.994;2023-01-08T01:57:29;9.50;99.90
981;DHT22;479;53.514;9.994;2023-01-08T01:59:57;9.60;99.90
981;DHT22;479;53.514;9.994;2023-01-08T02:02:24;9.60;99.90
981;DHT22;479;53.514;9.994;2023-01-08T02:04:51;9.60;99.90
981;DHT22;479;53.514;9.994;2023-01-08T02:07:23;9.60;99.90
981;DHT22;479;53.514;9.994;2023-01-08T02:09:58;9.60;99.90
981;DHT22;479;53.514;9.994;2023-01-08T02:12:32;9.60;99.90
981;DHT22;479;53.514;9.994;2023-01-08T02:15:06;9.60;99.90
981;DHT22;479;53.514;9.994;2023-01-08T02:17:43;9.70;99.90
981;DHT22;479;53.514;9.994;2023-01-08T02:20:12;9.70;99.90
981;DHT22;479;53.514;9.994;2023-01-08T02:23:10;9.70;99.90
981;DHT22;479;53.514;9.994;2023-01-08T02:26:11;9.70;99.90
981;DHT22;479;53.514;9.994;2023-01-08T02:28:41;9.70;99.90
981;DHT22;479;53.514;9.994;2023-01-08T02:31:09;9.70;99.90
981;DHT22;479;53.514;9.994;2023-01-08T02:33:37;9.80;99.90
981;DHT22;479;53.514;9.994;2023-01-08T02:36:24;9.70;99.90
981;DHT22;479;53.514;9.994;2023-01-08T02:41:52;9.70;99.90
981;DHT22;479;53.514;9.994;2023-01-08T02:44:24;9.70;99.90
981;DHT22;479;53.514;9.994;2023-01-08T02:46:55;9.70;99.90
981;DHT22;479;53.514;9.994;2023-01-08T02:49:27;9.70;99.90
981;DHT22;479;53.514;9.994;2023-01-08T02:51:56;9.60;99.90
981;DHT22;479;53.514;9.994;2023-01-08T02:54:27;9.50;99.90
981;DHT22;479;53.514;9.994;2023-01-08T02:56:59;9.50;99.90
981;DHT22;479;53.514;9.994;2023-01-08T02:59:29;9.50;99.90
981;DHT22;479;53.514;9.994;2023-01-08T03:01:57;9.50;99.90
981;DHT22;479;53.514;9.994;2023-01-08T03:04:25;9.50;99.90
981;DHT22;479;53.514;9.994;2023-01-08T03:06:52;9.50;99.90
981;DHT22;479;53.514;9.994;2023-01-08T03:09:19;9.50;99.90
981;DHT22;479;53.514;9.994;2023-01-08T03:11:51;9.50;99.90
981;DHT22;479;53.514;9.994;2023-01-08T03:14:24;9.50;99.90
981;DHT22;479;53.514;9.994;2023-01-08T03:16:55;9.50;99.90
981;DHT22;479;53.514;9.994;2023-01-08T03:19:26;9.50;99.90
981;DHT22;479;53.514;9.994;2023-01-08T03:21:55;9.40;99.90
981;DHT22;479;53.514;9.994;2023-01-08T03:24:25;9.30;99.90
981;DHT22;479;53.514;9.994;2023-01-08T03:26:57;9.40;99.90
981;DHT22;479;53.514;9.994;2023-01-08T03:29:26;9.40;99.90
981;DHT22;479;53.514;9.994;2023-01-08T03:31:58;9.40;99.90
981;DHT22;479;53.514;9.994;2023-01-08T03:34:27;9.40;99.90
981;DHT22;479;53.514;9.994;2023-01-08T03:36:57;9.50;99.90
981;DHT22;479;53.514;9.994;2023-01-08T03:39:29;9.40;99.90
981;DHT22;479;53.514;9.994;2023-01-08T03:42:00;9.40;99.90
981;DHT22;479;53.514;9.994;2023-01-08T03:44:29;9.30;99.90
981;DHT22;479;53.514;9.994;2023-01-08T03:46:57;9.40;99.90
981;DHT22;479;53.514;9.994;2023-01-08T03:49:25;9.40;99.90
981;DHT22;479;53.514;9.994;2023-01-08T03:51:54;9.40;99.90
981;DHT22;479;53.514;9.994;2023-01-08T03:54:24;9.40;99.90
981;DHT22;479;53.514;9.994;2023-01-08T03:56:52;9.50;99.90
981;DHT22;479;53.514;9.994;2023-01-08T03:59:19;9.50;99.90
981;DHT22;479;53.514;9.994;2023-01-08T04:01:47;9.50;99.90
981;DHT22;479;53.514;9.994;2023-01-08T04:04:15;9.50;99.90
981;DHT22;479;53.514;9.994;2023-01-08T04:06:41;9.60;99.90
981;DHT22;479;53.514;9.994;2023-01-08T04:09:08;9.60;99.90
981;DHT22;479;53.514;9.994;2023-01-08T04:11:36;9.70;99.90
981;DHT22;479;53.514;9.994;2023-01-08T04:14:02;9.70;99.90
981;DHT22;479;53.514;9.994;2023-01-08T04:16:29;9.70;99.90
981;DHT22;479;53.514;9.994;2023-01-08T04:18:57;9.70;99.90
981;DHT22;479;53.514;9.994;2023-01-08T04:21:24;9.70;99.90
981;DHT22;479;53.514;9.994;2023-01-08T04:23:51;9.70;99.90
981;DHT22;479;53.514;9.994;2023-01-08T04:26:18;9.80;99.90
981;DHT22;479;53.514;9.994;2023-01-08T04:28:45;9.80;99.90
981;DHT22;479;53.514;9.994;2023-01-08T04:31:12;9.80;99.90
981;DHT22;479;53.514;9.994;2023-01-08T04:33:38;9.90;99.90
981;DHT22;479;53.514;9.994;2023-01-08T04:36:07;9.80;99.90
981;DHT22;479;53.514;9.994;2023-01-08T04:38:34;9.90;99.90
981;DHT22;479;53.514;9.994;2023-01-08T04:41:01;9.90;99.90
981;DHT22;479;53.514;9.994;2023-01-08T04:43:29;9.90;99.90
981;DHT22;479;53.514;9.994;2023-01-08T04:45:57;9.90;99.90
981;DHT22;479;53.514;9.994;2023-01-08T04:48:24;9.90;99.90
981;DHT22;479;53.514;9.994;2023-01-08T04:50:51;9.90;99.90
981;DHT22;479;53.514;9.994;2023-01-08T04:53:19;10.00;99.90
981;DHT22;479;53.514;9.994;2023-01-08T04:55:46;9.90;99.90
981;DHT22;479;53.514;9.994;2023-01-08T04:58:13;9.90;99.90
981;DHT22;479;53.514;9.994;2023-01-08T05:00:40;9.90;99.90
981;DHT22;479;53.514;9.994;2023-01-08T05:03:07;9.90;99.90
981;DHT22;479;53.514;9.994;2023-01-08T05:05:34;9.90;99.90
981;DHT22;479;53.514;9.994;2023-01-08T05:08:01;9.90;99.90
981;DHT22;479;53.514;9.994;2023-01-08T05:10:29;9.90;99.90
981;DHT22;479;53.514;9.994;2023-01-08T05:12:57;9.90;99.90
981;DHT22;479;53.514;9.994;2023-01-08T05:15:24;9.90;99.90
981;DHT22;479;53.514;9.994;2023-01-08T05:17:57;9.90;99.90
981;DHT22;479;53.514;9.994;2023-01-08T05:20:24;9.90;99.90
981;DHT22;479;53.514;9.994;2023-01-08T05:22:51;9.90;99.90
981;DHT22;479;53.514;9.994;2023-01-08T05:25:18;9.80;99.90
981;DHT22;479;53.514;9.994;2023-01-08T05:27:46;9.80;99.90
981;DHT22;479;53.514;9.994;2023-01-08T05:30:13;9.80;99.90
981;DHT22;479;53.514;9.994;2023-01-08T05:32:40;9.80;99.90
981;DHT22;479;53.514;9.994;2023-01-08T05:35:08;9.80;99.90
981;DHT22;479;53.514;9.994;2023-01-08T05:37:35;9.80;99.90
981;DHT22;479;53.514;9.994;2023-01-08T05:40:03;9.80;99.90
981;DHT22;479;53.514;9.994;2023-01-08T05:42:33;9.70;99.90
981;DHT22;479;53.514;9.994;2023-01-08T05:45:02;9.70;99.90
981;DHT22;479;53.514;9.994;2023-01-08T05:47:29;9.70;99.90
981;DHT22;479;53.514;9.994;2023-01-08T05:49:56;9.70;99.90
981;DHT22;479;53.514;9.994;2023-01-08T05:52:23;9.70;99.90
981;DHT22;479;53.514;9.994;2023-01-08T05:54:50;9.70;99.90
981;DHT22;479;53.514;9.994;2023-01-08T05:57:17;9.70;99.90
981;DHT22;479;53.514;9.994;2023-01-08T05:59:44;9.70;99.90
981;DHT22;479;53.514;9.994;2023-01-08T06:02:12;9.70;99.90
981;DHT22;479;53.514;9.994;2023-01-08T06:04:39;9.60;99.90
981;DHT22;479;53.514;9.994;2023-01-08T06:07:06;9.70;99.90
981;DHT22;479;53.514;9.994;2023-01-08T06:09:33;9.70;99.90
981;DHT22;479;53.514;9.994;2023-01-08T06:11:59;9.70;99.90
981;DHT22;479;53.514;9.994;2023-01-08T06:14:26;9.70;99.90
981;DHT22;479;53.514;9.994;2023-01-08T06:16:53;9.70;99.90
981;DHT22;479;53.514;9.994;2023-01-08T06:19:21;9.70;99.90
981;DHT22;479;53.514;9.994;2023-01-08T06:21:48;9.70;99.90
981;DHT22;479;53.514;9.994;2023-01-08T06:24:15;9.70;99.90
981;DHT22;479;53.514;9.994;2023-01-08T06:26:42;9.70;99.90
981;DHT22;479;53.514;9.994;2023-01-08T06:29:09;9.60;99.90
981;DHT22;479;53.514;9.994;2023-01-08T06:31:36;9.50;99.90
981;DHT22;479;53.514;9.994;2023-01-08T06:34:02;9.60;99.90
981;DHT22;479;53.514;9.994;2023-01-08T06:36:31;9.60;99.90
981;DHT22;479;53.514;9.994;2023-01-08T06:38:58;9.60;99.90
981;DHT22;479;53.514;9.994;2023-01-08T06:41:25;9.60;99.90
981;DHT22;479;53.514;9.994;2023-01-08T06:43:51;9.60;99.90
981;DHT22;479;53.514;9.994;2023-01-08T06:46:18;9.60;99.90
981;DHT22;479;53.514;9.994;2023-01-08T06:48:45;9.60;99.90
981;DHT22;479;53.514;9.994;2023-01-08T06:51:12;9.60;99.90
981;DHT22;479;53.514;9.994;2023-01-08T06:53:40;9.60;99.90
981;DHT22;479;53.514;9.994;2023-01-08T06:56:07;9.50;99.90
981;DHT22;479;53.514;9.994;2023-01-08T06:58:36;9.60;99.90
981;DHT22;479;53.514;9.994;2023-01-08T07:01:04;9.70;99.90
981;DHT22;479;53.514;9.994;2023-01-08T07:03:31;9.50;99.90
981;DHT22;479;53.514;9.994;2023-01-08T07:06:00;9.50;99.90
981;DHT22;479;53.514;9.994;2023-01-08T07:08:27;9.50;99.90
981;DHT22;479;53.514;9.994;2023-01-08T07:10:55;9.60;99.90
981;DHT22;479;53.514;9.994;2023-01-08T07:13:22;9.50;99.90
981;DHT22;479;53.514;9.994;2023-01-08T07:15:49;9.50;99.90
981;DHT22;479;53.514;9.994;2023-01-08T07:18:16;9.50;99.90
981;DHT22;479;53.514;9.994;2023-01-08T07:20:43;9.50;99.90
981;DHT22;479;53.514;9.994;2023-01-08T07:23:10;9.60;99.90
981;DHT22;479;53.514;9.994;2023-01-08T07:25:37;9.60;99.90
981;DHT22;479;53.514;9.994;2023-01-08T07:28:05;9.60;99.90
981;DHT22;479;53.514;9.994;2023-01-08T07:30:36;9.60;99.90
981;DHT22;479;53.514;9.994;2023-01-08T07:33:03;9.60;99.90
981;DHT22;479;53.514;9.994;2023-01-08T07:35:30;9.60;99.90
981;DHT22;479;53.514;9.994;2023-01-08T07:37:57;9.60;99.90
981;DHT22;479;53.514;9.994;2023-01-08T07:40:23;9.60;99.90
981;DHT22;479;53.514;9.994;2023-01-08T07:42:56;9.60;99.90
981;DHT22;479;53.514;9.994;2023-01-08T07:45:25;9.60;99.90
981;DHT22;479;53.514;9.994;2023-01-08T07:47:52;9.60;99.90
981;DHT22;479;53.514;9.994;2023-01-08T07:50:19;9.60;99.90
981;DHT22;479;53.514;9.994;2023-01-08T07:52:46;9.60;99.90
981;DHT22;479;53.514;9.994;2023-01-08T07:55:13;9.60;99.90
981;DHT22;479;53.514;9.994;2023-01-08T07:57:40;9.60;99.90
981;DHT22;479;53.514;9.994;2023-01-08T08:00:07;9.60;99.90
981;DHT22;479;53.514;9.994;2023-01-08T08:02:38;9.70;99.90
981;DHT22;479;53.514;9.994;2023-01-08T08:05:05;9.60;99.90
981;DHT22;479;53.514;9.994;2023-01-08T08:07:32;9.60;99.90
981;DHT22;479;53.514;9.994;2023-01-08T08:10:00;9.60;99.90
981;DHT22;479;53.514;9.994;2023-01-08T08:12:27;9.50;99.90
981;DHT22;479;53.514;9.994;2023-01-08T08:14:54;9.50;99.90
981;DHT22;479;53.514;9.994;2023-01-08T08:17:21;9.50;99.90
981;DHT22;479;53.514;9.994;2023-01-08T08:19:49;9.60;99.90
981;DHT22;479;53.514;9.994;2023-01-08T08:22:16;9.50;99.90
981;DHT22;479;53.514;9.994;2023-01-08T08:24:43;9.50;99.90
981;DHT22;479;53.514;9.994;2023-01-08T08:27:10;9.40;99.90
981;DHT22;479;53.514;9.994;2023-01-08T08:29:47;9.40;99.90
981;DHT22;479;53.514;9.994;2023-01-08T08:32:14;9.40;99.90
981;DHT22;479;53.514;9.994;2023-01-08T08:34:41;9.40;99.90
981;DHT22;479;53.514;9.994;2023-01-08T08:37:09;9.40;99.90
981;DHT22;479;53.514;9.994;2023-01-08T08:39:36;9.40;99.90
981;DHT22;479;53.514;9.994;2023-01-08T08:42:03;9.40;99.90
981;DHT22;479;53.514;9.994;2023-01-08T08:44:30;9.40;99.90
981;DHT22;479;53.514;9.994;2023-01-08T08:46:57;9.40;99.90
981;DHT22;479;53.514;9.994;2023-01-08T08:49:24;9.50;99.90
981;DHT22;479;53.514;9.994;2023-01-08T08:51:51;9.50;99.90
981;DHT22;479;53.514;9.994;2023-01-08T08:54:19;9.50;99.90
981;DHT22;479;53.514;9.994;2023-01-08T08:56:47;9.50;99.90
981;DHT22;479;53.514;9.994;2023-01-08T08:59:14;9.50;99.90
981;DHT22;479;53.514;9.994;2023-01-08T09:01:41;9.40;99.90
981;DHT22;479;53.514;9.994;2023-01-08T09:04:07;9.40;99.90
981;DHT22;479;53.514;9.994;2023-01-08T09:06:34;9.50;99.90
981;DHT22;479;53.514;9.994;2023-01-08T09:09:01;9.50;99.90
981;DHT22;479;53.514;9.994;2023-01-08T09:11:30;9.50;99.90
981;DHT22;479;53.514;9.994;2023-01-08T09:13:57;9.50;99.90
981;DHT22;479;53.514;9.994;2023-01-08T09:16:23;9.50;99.90
981;DHT22;479;53.514;9.994;2023-01-08T09:18:50;9.50;99.90
981;DHT22;479;53.514;9.994;2023-01-08T09:21:17;9.50;99.90
981;DHT22;479;53.514;9.994;2023-01-08T09:23:44;9.50;99.90
981;DHT22;479;53.514;9.994;2023-01-08T09:26:13;9.50;99.90
981;DHT22;479;53.514;9.994;2023-01-08T09:28:41;9.60;99.90
981;DHT22;479;53.514;9.994;2023-01-08T09:31:08;9.60;99.90
981;DHT22;479;53.514;9.994;2023-01-08T09:33:35;9.70;99.90
981;DHT22;479;53.514;9.994;2023-01-08T09:36:02;9.60;99.90
981;DHT22;479;53.514;9.994;2023-01-08T09:38:29;9.70;99.90
981;DHT22;479;53.514;9.994;2023-01-08T09:40:59;9.70;99.90
981;DHT22;479;53.514;9.994;2023-01-08T09:43:30;9.80;99.90
981;DHT22;479;53.514;9.994;2023-01-08T09:46:00;9.80;99.90
981;DHT22;479;53.514;9.994;2023-01-08T09:48:31;9.80;99.90
981;DHT22;479;53.514;9.994;2023-01-08T09:51:00;9.80;99.90
981;DHT22;479;53.514;9.994;2023-01-08T09:53:27;9.80;99.90
981;DHT22;479;53.514;9.994;2023-01-08T09:55:57;9.90;99.90
981;DHT22;479;53.514;9.994;2023-01-08T09:58:31;9.80;99.90
981;DHT22;479;53.514;9.994;2023-01-08T10:01:02;9.80;99.90
981;DHT22;479;53.514;9.994;2023-01-08T10:03:35;9.80;99.90
981;DHT22;479;53.514;9.994;2023-01-08T10:06:08;9.90;99.90
981;DHT22;479;53.514;9.994;2023-01-08T10:08:35;9.90;99.90
981;DHT22;479;53.514;9.994;2023-01-08T10:11:03;9.90;99.90
981;DHT22;479;53.514;9.994;2023-01-08T10:13:31;9.90;99.90
981;DHT22;479;53.514;9.994;2023-01-08T10:15:58;9.90;99.90
981;DHT22;479;53.514;9.994;2023-01-08T10:18:27;9.90;99.90
981;DHT22;479;53.514;9.994;2023-01-08T10:20:54;10.00;99.90
981;DHT22;479;53.514;9.994;2023-01-08T10:23:21;10.00;99.90
981;DHT22;479;53.514;9.994;2023-01-08T10:25:51;10.00;99.90
981;DHT22;479;53.514;9.994;2023-01-08T10:28:20;10.00;99.90
981;DHT22;479;53.514;9.994;2023-01-08T10:30:49;10.00;99.90
981;DHT22;479;53.514;9.994;2023-01-08T10:33:20;10.00;99.90
981;DHT22;479;53.514;9.994;2023-01-08T10:35:56;10.00;99.90
981;DHT22;479;53.514;9.994;2023-01-08T10:38:27;9.90;99.90
981;DHT22;479;53.514;9.994;2023-01-08T10:40:56;9.90;99.90
981;DHT22;479;53.514;9.994;2023-01-08T10:43:25;9.90;99.90
981;DHT22;479;53.514;9.994;2023-01-08T10:45:56;9.80;99.90
981;DHT22;479;53.514;9.994;2023-01-08T10:48:29;9.80;99.90
981;DHT22;479;53.514;9.994;2023-01-08T10:51:13;9.80;99.90
981;DHT22;479;53.514;9.994;2023-01-08T10:53:41;9.80;99.90
981;DHT22;479;53.514;9.994;2023-01-08T10:56:17;9.90;99.90
981;DHT22;479;53.514;9.994;2023-01-08T10:58:44;9.90;99.90
981;DHT22;479;53.514;9.994;2023-01-08T11:01:16;9.90;99.90
981;DHT22;479;53.514;9.994;2023-01-08T11:03:48;10.00;99.90
981;DHT22;479;53.514;9.994;2023-01-08T11:06:20;10.00;99.90
981;DHT22;479;53.514;9.994;2023-01-08T11:08:49;9.90;99.90
981;DHT22;479;53.514;9.994;2023-01-08T11:11:17;9.90;99.90
981;DHT22;479;53.514;9.994;2023-01-08T11:13:55;9.80;99.90
981;DHT22;479;53.514;9.994;2023-01-08T11:16:30;9.80;99.90
981;DHT22;479;53.514;9.994;2023-01-08T11:18:57;9.80;99.90
981;DHT22;479;53.514;9.994;2023-01-08T11:21:27;9.80;99.90
981;DHT22;479;53.514;9.994;2023-01-08T11:24:14;9.90;99.90
981;DHT22;479;53.514;9.994;2023-01-08T11:26:46;10.00;99.90
981;DHT22;479;53.514;9.994;2023-01-08T11:29:17;10.20;99.90
981;DHT22;479;53.514;9.994;2023-01-08T11:31:50;10.60;99.90
981;DHT22;479;53.514;9.994;2023-01-08T11:34:23;11.30;99.90
981;DHT22;479;53.514;9.994;2023-01-08T11:36:58;11.60;99.90
981;DHT22;479;53.514;9.994;2023-01-08T11:39:27;11.50;99.90
981;DHT22;479;53.514;9.994;2023-01-08T11:42:06;11.70;99.90
981;DHT22;479;53.514;9.994;2023-01-08T11:44:40;11.80;99.90
981;DHT22;479;53.514;9.994;2023-01-08T11:47:14;11.80;99.90
981;DHT22;479;53.514;9.994;2023-01-08T11:49:54;11.70;99.90
981;DHT22;479;53.514;9.994;2023-01-08T11:52:37;11.40;99.90
981;DHT22;479;53.514;9.994;2023-01-08T12:01:14;10.80;99.90
981;DHT22;479;53.514;9.994;2023-01-08T12:03:46;10.80;99.90
981;DHT22;479;53.514;9.994;2023-01-08T12:06:31;10.80;99.90
981;DHT22;479;53.514;9.994;2023-01-08T12:09:12;10.80;99.90
981;DHT22;479;53.514;9.994;2023-01-08T12:11:47;10.80;99.90
981;DHT22;479;53.514;9.994;2023-01-08T12:14:30;10.90;99.90
981;DHT22;479;53.514;9.994;2023-01-08T12:17:20;10.90;99.90
981;DHT22;479;53.514;9.994;2023-01-08T12:19:57;10.90;99.90
981;DHT22;479;53.514;9.994;2023-01-08T12:22:35;10.90;99.90
981;DHT22;479;53.514;9.994;2023-01-08T12:28:21;10.70;99.90
981;DHT22;479;53.514;9.994;2023-01-08T12:33:47;10.70;99.90
981;DHT22;479;53.514;9.994;2023-01-08T12:36:17;10.70;99.90
981;DHT22;479;53.514;9.994;2023-01-08T12:38:51;10.70;99.90
981;DHT22;479;53.514;9.994;2023-01-08T12:41:22;10.60;99.90
981;DHT22;479;53.514;9.994;2023-01-08T12:43:53;10.70;99.90
981;DHT22;479;53.514;9.994;2023-01-08T12:46:24;10.80;99.90
981;DHT22;479;53.514;9.994;2023-01-08T12:48:53;10.90;99.90
981;DHT22;479;53.514;9.994;2023-01-08T12:51:26;11.00;99.90
981;DHT22;479;53.514;9.994;2023-01-08T12:54:00;10.90;99.90
981;DHT22;479;53.514;9.994;2023-01-08T12:56:36;10.80;99.90
981;DHT22;479;53.514;9.994;2023-01-08T12:59:20;10.70;99.90
981;DHT22;479;53.514;9.994;2023-01-08T13:01:52;10.70;99.90
981;DHT22;479;53.514;9.994;2023-01-08T13:04:21;10.60;99.90
981;DHT22;479;53.514;9.994;2023-01-08T13:07:00;10.70;99.90
981;DHT22;479;53.514;9.994;2023-01-08T13:09:28;10.80;99.90
981;DHT22;479;53.514;9.994;2023-01-08T13:11:57;10.80;99.90
981;DHT22;479;53.514;9.994;2023-01-08T13:14:25;10.90;99.90
981;DHT22;479;53.514;9.994;2023-01-08T13:17:04;10.80;99.90
981;DHT22;479;53.514;9.994;2023-01-08T13:19:36;10.80;99.90
981;DHT22;479;53.514;9.994;2023-01-08T13:22:21;10.80;99.90
981;DHT22;479;53.514;9.994;2023-01-08T13:24:48;10.80;99.90
981;DHT22;479;53.514;9.994;2023-01-08T13:27:27;10.70;99.90
981;DHT22;479;53.514;9.994;2023-01-08T13:29:55;10.70;99.90
981;DHT22;479;53.514;9.994;2023-01-08T13:32:26;10.80;99.90
981;DHT22;479;53.514;9.994;2023-01-08T13:35:18;10.70;99.90
981;DHT22;479;53.514;9.994;2023-01-08T13:37:47;10.80;99.90
981;DHT22;479;53.514;9.994;2023-01-08T13:40:36;10.80;99.90
981;DHT22;479;53.514;9.994;2023-01-08T13:43:10;10.70;99.90
981;DHT22;479;53.514;9.994;2023-01-08T13:45:37;10.70;99.90
981;DHT22;479;53.514;9.994;2023-01-08T13:48:05;10.70;99.90
981;DHT22;479;53.514;9.994;2023-01-08T13:50:34;10.70;99.90
981;DHT22;479;53.514;9.994;2023-01-08T13:53:03;10.70;99.90
981;DHT22;479;53.514;9.994;2023-01-08T13:55:32;10.70;99.90
981;DHT22;479;53.514;9.994;2023-01-08T13:58:02;10.70;99.90
981;DHT22;479;53.514;9.994;2023-01-08T14:00:42;10.70;99.90
981;DHT22;479;53.514;9.994;2023-01-08T14:03:21;10.70;99.90
981;DHT22;479;53.514;9.994;2023-01-08T14:05:48;10.60;99.90
981;DHT22;479;53.514;9.994;2023-01-08T14:08:22;10.50;99.90
981;DHT22;479;53.514;9.994;2023-01-08T14:10:49;10.60;99.90
981;DHT22;479;53.514;9.994;2023-01-08T14:13:17;10.50;99.90
981;DHT22;479;53.514;9.994;2023-01-08T14:15:48;10.50;99.90
981;DHT22;479;53.514;9.994;2023-01-08T14:18:15;10.40;99.90
981;DHT22;479;53.514;9.994;2023-01-08T14:20:43;10.40;99.90
981;DHT22;479;53.514;9.994;2023-01-08T14:23:18;10.40;99.90
981;DHT22;479;53.514;9.994;2023-01-08T14:25:47;10.40;99.90
981;DHT22;479;53.514;9.994;2023-01-08T14:28:15;10.40;99.90
981;DHT22;479;53.514;9.994;2023-01-08T14:30:48;10.40;99.90
981;DHT22;479;53.514;9.994;2023-01-08T14:33:16;10.30;99.90
981;DHT22;479;53.514;9.994;2023-01-08T14:35:44;10.30;99.90
981;DHT22;479;53.514;9.994;2023-01-08T14:38:13;10.20;99.90
981;DHT22;479;53.514;9.994;2023-01-08T14:40:42;10.20;99.90
981;DHT22;479;53.514;9.994;2023-01-08T14:43:13;10.10;99.90
981;DHT22;479;53.514;9.994;2023-01-08T14:45:45;10.10;99.90
981;DHT22;479;53.514;9.994;2023-01-08T14:48:18;10.10;99.90
981;DHT22;479;53.514;9.994;2023-01-08T14:50:57;10.00;99.90
981;DHT22;479;53.514;9.994;2023-01-08T14:53:27;10.10;99.90
981;DHT22;479;53.514;9.994;2023-01-08T14:55:56;10.10;99.90
981;DHT22;479;53.514;9.994;2023-01-08T14:58:25;10.00;99.90
981;DHT22;479;53.514;9.994;2023-01-08T15:00:55;10.00;99.90
981;DHT22;479;53.514;9.994;2023-01-08T15:03:31;9.90;99.90
981;DHT22;479;53.514;9.994;2023-01-08T15:05:58;9.90;99.90
981;DHT22;479;53.514;9.994;2023-01-08T15:08:30;9.80;99.90
981;DHT22;479;53.514;9.994;2023-01-08T15:10:59;9.80;99.90
981;DHT22;479;53.514;9.994;2023-01-08T15:13:30;9.70;99.90
981;DHT22;479;53.514;9.994;2023-01-08T15:16:01;9.60;99.90
981;DHT22;479;53.514;9.994;2023-01-08T15:18:34;9.60;99.90
981;DHT22;479;53.514;9.994;2023-01-08T15:21:01;9.60;99.90
981;DHT22;479;53.514;9.994;2023-01-08T15:23:34;9.50;99.90
981;DHT22;479;53.514;9.994;2023-01-08T15:26:03;9.50;99.90
981;DHT22;479;53.514;9.994;2023-01-08T15:28:30;9.50;99.90
981;DHT22;479;53.514;9.994;2023-01-08T15:30:57;9.40;99.90
981;DHT22;479;53.514;9.994;2023-01-08T15:33:24;9.40;99.90
981;DHT22;479;53.514;9.994;2023-01-08T15:35:53;9.40;99.90
981;DHT22;479;53.514;9.994;2023-01-08T15:38:20;9.30;99.90
981;DHT22;479;53.514;9.994;2023-01-08T15:40:49;9.20;99.90
981;DHT22;479;53.514;9.994;2023-01-08T15:43:18;9.20;99.90
981;DHT22;479;53.514;9.994;2023-01-08T15:45:46;9.10;99.90
981;DHT22;479;53.514;9.994;2023-01-08T15:48:13;9.10;99.90
981;DHT22;479;53.514;9.994;2023-01-08T15:50:43;9.00;99.90
981;DHT22;479;53.514;9.994;2023-01-08T15:53:15;9.00;99.90
981;DHT22;479;53.514;9.994;2023-01-08T15:55:43;8.90;99.90
981;DHT22;479;53.514;9.994;2023-01-08T15:58:12;8.90;99.90
981;DHT22;479;53.514;9.994;2023-01-08T16:00:40;8.90;99.90
981;DHT22;479;53.514;9.994;2023-01-08T16:03:07;8.90;99.90
981;DHT22;479;53.514;9.994;2023-01-08T16:05:35;8.90;99.90
981;DHT22;479;53.514;9.994;2023-01-08T16:08:02;8.90;99.90
981;DHT22;479;53.514;9.994;2023-01-08T16:10:31;8.90;99.90
981;DHT22;479;53.514;9.994;2023-01-08T16:12:58;8.80;99.90
981;DHT22;479;53.514;9.994;2023-01-08T16:15:25;8.70;99.90
981;DHT22;479;53.514;9.994;2023-01-08T16:17:53;8.70;99.90
981;DHT22;479;53.514;9.994;2023-01-08T16:20:20;8.60;99.90
981;DHT22;479;53.514;9.994;2023-01-08T16:22:46;8.60;99.90
981;DHT22;479;53.514;9.994;2023-01-08T16:25:13;8.60;99.90
981;DHT22;479;53.514;9.994;2023-01-08T16:27:41;8.60;99.90
981;DHT22;479;53.514;9.994;2023-01-08T16:30:11;8.60;99.90
981;DHT22;479;53.514;9.994;2023-01-08T16:32:39;8.60;99.90
981;DHT22;479;53.514;9.994;2023-01-08T16:35:06;8.70;99.90
981;DHT22;479;53.514;9.994;2023-01-08T16:37:33;8.70;99.90
981;DHT22;479;53.514;9.994;2023-01-08T16:40:00;8.70;99.90
981;DHT22;479;53.514;9.994;2023-01-08T16:42:27;8.70;99.90
981;DHT22;479;53.514;9.994;2023-01-08T16:44:55;8.60;99.90
981;DHT22;479;53.514;9.994;2023-01-08T16:47:22;8.60;99.90
981;DHT22;479;53.514;9.994;2023-01-08T16:49:49;8.60;99.90
981;DHT22;479;53.514;9.994;2023-01-08T16:52:17;8.60;99.90
981;DHT22;479;53.514;9.994;2023-01-08T16:54:44;8.60;99.90
981;DHT22;479;53.514;9.994;2023-01-08T16:57:10;8.60;99.90
981;DHT22;479;53.514;9.994;2023-01-08T16:59:37;8.60;99.90
981;DHT22;479;53.514;9.994;2023-01-08T17:02:06;8.60;99.90
981;DHT22;479;53.514;9.994;2023-01-08T17:04:33;8.60;99.90
981;DHT22;479;53.514;9.994;2023-01-08T17:07:00;8.70;99.90
981;DHT22;479;53.514;9.994;2023-01-08T17:09:27;8.70;99.90
981;DHT22;479;53.514;9.994;2023-01-08T17:11:54;8.60;99.90
981;DHT22;479;53.514;9.994;2023-01-08T17:14:21;8.60;99.90
981;DHT22;479;53.514;9.994;2023-01-08T17:16:48;8.60;99.90
981;DHT22;479;53.514;9.994;2023-01-08T17:19:16;8.60;99.90